Time;durP1;ratioP1;P1;durP2;ratioP2;P2;SDS_P1;SDS_P2;PMS_P1;PMS_P2;Temp;Humidity;BMP_temperature;BMP_pressure;BME280_temperature;BME280_humidity;BME280_pressure;Samples;Min_cycle;Max_cycle;Signal;HPM_P1;HPM_P2
2023/01/09 00:00:20;;;;;;;147.97;65.33;;;;;;;1.87;98.35;94927.19;5023117;28;20202;-79
2023/01/09 00:02:48;;;;;;;138.00;63.73;;;;;;;1.99;97.88;94926.69;5023132;28;20194;-79
2023/01/09 00:05:17;;;;;;;134.50;61.77;;;;;;;1.95;97.74;94929.75;5019502;28;20259;-81
2023/01/09 00:07:45;;;;;;;136.43;62.63;;;;;;;1.92;97.93;94935.19;5023310;28;20310;-79
2023/01/09 00:10:14;;;;;;;138.43;62.00;;;;;;;1.89;97.97;94933.75;5023876;28;20199;-80
2023/01/09 00:12:41;;;;;;;136.43;61.63;;;;;;;1.85;97.99;94929.88;5018370;28;20278;-80
2023/01/09 00:15:10;;;;;;;141.67;60.37;;;;;;;1.81;96.82;94904.75;5026818;28;20225;-81
2023/01/09 00:17:37;;;;;;;129.70;56.47;;;;;;;1.82;97.28;94921.75;5018615;28;20187;-80
2023/01/09 00:20:05;;;;;;;120.27;57.10;;;;;;;1.76;97.91;94912.13;5018625;28;20195;-82
2023/01/09 00:22:32;;;;;;;128.20;56.07;;;;;;;1.70;98.02;94922.00;5022144;28;20741;-81
2023/01/09 00:25:00;;;;;;;119.37;53.97;;;;;;;1.65;98.22;94916.56;5018024;28;20229;-81
2023/01/09 00:27:29;;;;;;;121.57;54.40;;;;;;;1.61;98.18;94915.31;5022702;28;20206;-81
2023/01/09 00:29:56;;;;;;;106.50;50.10;;;;;;;1.59;98.46;94908.72;5026183;28;21028;-81
2023/01/09 00:32:23;;;;;;;112.13;50.23;;;;;;;1.56;98.98;94909.81;5022975;28;20223;-81
2023/01/09 00:34:50;;;;;;;124.27;54.27;;;;;;;1.64;99.17;94919.31;5018838;28;20234;-80
2023/01/09 00:37:17;;;;;;;120.47;54.13;;;;;;;1.56;98.91;94909.00;5018875;28;20218;-78
2023/01/09 00:39:44;;;;;;;114.10;53.17;;;;;;;1.61;98.69;94912.75;5015959;28;20209;-79
2023/01/09 00:42:16;;;;;;;115.17;54.00;;;;;;;1.51;99.25;94909.50;5020303;28;20228;-79
2023/01/09 00:44:47;;;;;;;125.43;58.00;;;;;;;1.56;99.50;94917.50;5019567;28;20587;-79
2023/01/09 00:47:18;;;;;;;124.33;59.10;;;;;;;1.54;99.33;94923.75;5015082;28;20203;-80
2023/01/09 00:49:46;;;;;;;129.00;57.70;;;;;;;1.47;98.89;94902.31;5022571;28;20188;-80
2023/01/09 00:52:14;;;;;;;122.60;56.90;;;;;;;1.54;99.08;94913.50;5023638;28;20205;-81
2023/01/09 00:54:42;;;;;;;117.10;56.73;;;;;;;1.62;98.34;94913.50;5015821;28;20202;-80
2023/01/09 00:57:13;;;;;;;118.97;56.17;;;;;;;1.61;98.54;94914.50;5021858;28;20571;-81
2023/01/09 00:59:40;;;;;;;119.43;53.57;;;;;;;1.52;98.82;94907.75;5014367;28;20623;-80
2023/01/09 01:02:07;;;;;;;116.50;55.13;;;;;;;1.57;98.68;94913.19;5024676;28;20201;-81
2023/01/09 01:10:02;;;;;;;98.93;49.50;;;;;;;1.40;100.00;94909.00;5021638;28;20199;-80
2023/01/09 01:12:30;;;;;;;99.40;49.20;;;;;;;1.43;99.77;94909.47;5018809;28;20654;-80
2023/01/09 01:14:57;;;;;;;79.23;39.57;;;;;;;1.39;99.74;94902.25;5022202;28;20216;-80
2023/01/09 01:17:24;;;;;;;72.97;37.67;;;;;;;1.41;100.00;94890.94;5024004;28;20227;-79
2023/01/09 01:19:51;;;;;;;81.00;41.40;;;;;;;1.49;100.00;94890.13;5019063;28;20221;-80
2023/01/09 01:22:18;;;;;;;92.67;46.13;;;;;;;1.45;100.00;94888.84;5026030;28;20700;-81
2023/01/09 01:24:44;;;;;;;93.83;46.97;;;;;;;1.42;99.58;94894.25;5027809;28;20229;-82
2023/01/09 01:27:11;;;;;;;104.00;48.90;;;;;;;1.34;99.25;94878.88;5020768;28;20202;-80
2023/01/09 01:29:40;;;;;;;109.67;48.53;;;;;;;1.41;98.91;94895.25;5027316;28;20208;-80
2023/01/09 01:32:07;;;;;;;95.83;45.73;;;;;;;1.42;99.63;94891.69;5021716;28;20560;-81
2023/01/09 01:34:34;;;;;;;100.60;48.20;;;;;;;1.30;99.25;94882.75;5028037;28;20246;-80
2023/01/09 01:37:01;;;;;;;96.07;46.27;;;;;;;1.22;99.87;94875.00;5013112;28;20207;-80
2023/01/09 01:39:27;;;;;;;87.77;44.10;;;;;;;1.37;98.77;94873.47;5025701;28;20711;-81
2023/01/09 01:41:54;;;;;;;85.57;41.40;;;;;;;1.33;98.94;94872.19;5025317;28;20216;-80
2023/01/09 01:44:58;;;;;;;85.73;41.83;;;;;;;1.30;99.10;94873.28;5022925;28;20325;-79
2023/01/09 01:47:33;;;;;;;81.73;41.37;;;;;;;1.34;99.02;94866.91;5024296;28;20197;-79
2023/01/09 01:50:03;;;;;;;107.07;43.07;;;;;;;1.34;98.92;94861.78;5022137;28;20214;-79
2023/01/09 01:52:32;;;;;;;62.70;30.10;;;;;;;1.27;99.29;94863.34;5023787;28;20195;-79
2023/01/09 01:54:59;;;;;;;58.40;30.93;;;;;;;1.19;100.00;94854.84;5024222;28;20305;-80
2023/01/09 01:57:26;;;;;;;51.93;28.17;;;;;;;1.03;100.00;94851.31;5028060;28;20214;-80
2023/01/09 01:59:58;;;;;;;62.03;30.47;;;;;;;0.94;100.00;94844.56;5018716;28;20218;-80
2023/01/09 02:02:30;;;;;;;70.67;34.47;;;;;;;1.05;100.00;94843.47;5022893;28;20751;-79
2023/01/09 02:04:59;;;;;;;83.47;39.00;;;;;;;1.11;100.00;94845.41;5024051;28;20214;-79
2023/01/09 02:07:26;;;;;;;80.37;40.17;;;;;;;1.11;100.00;94824.94;5027560;28;20197;-83
2023/01/09 02:09:54;;;;;;;77.60;38.60;;;;;;;1.25;100.00;94836.31;5021511;28;20268;-80
2023/01/09 02:12:23;;;;;;;79.23;38.40;;;;;;;1.28;100.00;94831.69;5025380;28;20199;-80
2023/01/09 02:14:53;;;;;;;74.93;36.40;;;;;;;1.22;100.00;94827.19;5026645;28;20683;-81
2023/01/09 02:17:42;;;;;;;69.47;36.83;;;;;;;1.29;100.00;94845.28;5022911;28;21548;-81
2023/01/09 02:20:35;;;;;;;74.93;36.30;;;;;;;1.28;100.00;94839.38;5024407;28;20558;-80
2023/01/09 02:23:34;;;;;;;80.60;37.87;;;;;;;1.24;100.00;94840.63;5011805;28;20202;-80
2023/01/09 02:26:23;;;;;;;69.63;34.53;;;;;;;1.27;100.00;94842.88;5022906;28;20567;-81
2023/01/09 02:29:30;;;;;;;74.27;35.50;;;;;;;1.32;100.00;94834.75;5024035;28;21637;-81
2023/01/09 02:32:04;;;;;;;75.07;38.07;;;;;;;1.33;100.00;94831.22;5017211;28;20687;-78
2023/01/09 02:34:37;;;;;;;76.67;37.97;;;;;;;1.30;100.00;94829.75;5020122;28;20217;-78
2023/01/09 02:37:12;;;;;;;76.30;37.33;;;;;;;1.31;99.95;94825.44;5021443;28;20270;-84
2023/01/09 02:39:43;;;;;;;75.20;37.27;;;;;;;1.21;100.00;94824.81;5024342;28;20579;-83
2023/01/09 02:42:15;;;;;;;72.83;37.80;;;;;;;1.14;100.00;94822.06;5009821;28;20702;-85
2023/01/09 02:44:43;;;;;;;83.03;38.80;;;;;;;1.06;100.00;94814.38;5017090;28;20215;-83
2023/01/09 02:47:40;;;;;;;73.03;35.97;;;;;;;1.05;100.00;94826.34;5022101;28;20185;-79
2023/01/09 02:50:12;;;;;;;76.17;36.17;;;;;;;0.96;100.00;94819.59;5024296;28;20199;-80
2023/01/09 02:52:56;;;;;;;66.67;33.93;;;;;;;0.99;100.00;94818.50;5021090;28;20198;-79
2023/01/09 02:55:37;;;;;;;78.30;35.57;;;;;;;0.89;100.00;94810.97;5025208;28;20213;-79
2023/01/09 02:58:09;;;;;;;73.77;35.50;;;;;;;1.00;100.00;94820.09;5020405;28;20200;-80
2023/01/09 03:00:45;;;;;;;74.13;35.27;;;;;;;1.03;100.00;94819.81;5025095;28;20197;-79
2023/01/09 03:03:24;;;;;;;73.13;34.10;;;;;;;1.05;100.00;94818.69;5018492;28;20210;-80
2023/01/09 03:05:59;;;;;;;71.40;33.93;;;;;;;1.07;100.00;94815.94;5020413;28;20330;-80
2023/01/09 03:08:32;;;;;;;69.33;34.47;;;;;;;1.06;100.00;94817.72;5016223;28;20281;-80
2023/01/09 03:11:03;;;;;;;73.43;35.50;;;;;;;1.07;100.00;94810.84;5024648;28;20195;-81
2023/01/09 03:13:35;;;;;;;70.80;34.83;;;;;;;1.09;100.00;94819.97;5021930;28;20190;-79
2023/01/09 03:16:07;;;;;;;78.07;37.07;;;;;;;1.15;100.00;94823.69;5022813;28;20266;-80
2023/01/09 03:18:39;;;;;;;63.00;31.47;;;;;;;1.10;100.00;94823.31;5021958;28;20198;-79
2023/01/09 03:21:10;;;;;;;69.17;35.53;;;;;;;1.12;100.00;94824.78;5020793;28;20202;-81
2023/01/09 03:23:49;;;;;;;71.47;35.27;;;;;;;1.04;100.00;94823.94;5018243;28;20217;-81
2023/01/09 03:26:16;;;;;;;74.73;34.93;;;;;;;1.05;100.00;94820.44;5023440;28;20229;-81
2023/01/09 03:28:43;;;;;;;82.27;36.77;;;;;;;1.02;100.00;94813.88;5024487;28;20194;-82
2023/01/09 03:31:10;;;;;;;77.83;35.77;;;;;;;1.08;100.00;94815.00;5025839;28;20201;-82
2023/01/09 03:33:39;;;;;;;72.70;36.47;;;;;;;1.07;100.00;94813.41;5021265;28;20231;-80
2023/01/09 03:36:06;;;;;;;75.53;36.67;;;;;;;1.06;100.00;94819.50;5022592;28;20205;-81
2023/01/09 03:38:33;;;;;;;74.17;37.47;;;;;;;0.98;100.00;94819.47;5024643;28;20201;-81
2023/01/09 03:41:00;;;;;;;76.03;35.20;;;;;;;0.85;100.00;94814.78;5017199;28;20696;-80
2023/01/09 03:43:27;;;;;;;79.10;37.03;;;;;;;0.84;100.00;94814.91;5017245;28;20570;-80
2023/01/09 03:45:54;;;;;;;72.33;35.67;;;;;;;0.89;100.00;94813.53;5022903;28;20714;-80
2023/01/09 03:48:21;;;;;;;75.80;36.07;;;;;;;0.89;100.00;94813.53;5019614;28;20204;-80
2023/01/09 03:50:50;;;;;;;69.57;35.33;;;;;;;0.95;100.00;94820.56;5017655;28;20200;-80
2023/01/09 03:53:17;;;;;;;79.63;39.73;;;;;;;0.83;100.00;94809.03;5020927;28;20192;-79
2023/01/09 03:55:45;;;;;;;77.40;36.33;;;;;;;0.86;100.00;94821.50;5023009;28;20191;-79
2023/01/09 03:58:12;;;;;;;76.23;36.80;;;;;;;0.88;100.00;94818.78;5021880;28;20284;-80
2023/01/09 04:00:40;;;;;;;81.13;37.87;;;;;;;0.83;100.00;94808.22;5020892;28;20254;-80
2023/01/09 04:03:07;;;;;;;80.63;39.40;;;;;;;0.94;100.00;94816.41;5025873;28;20207;-79
2023/01/09 04:05:34;;;;;;;81.07;39.80;;;;;;;0.90;100.00;94809.19;5021559;28;20248;-80
2023/01/09 04:08:02;;;;;;;88.73;42.07;;;;;;;0.94;100.00;94813.06;5024190;28;20197;-80
2023/01/09 04:10:29;;;;;;;87.67;40.03;;;;;;;1.02;100.00;94816.44;5020799;28;20197;-81
2023/01/09 04:12:56;;;;;;;86.70;38.70;;;;;;;1.02;100.00;94805.41;5022883;28;20211;-79
2023/01/09 04:15:23;;;;;;;75.70;38.07;;;;;;;0.94;100.00;94816.41;5021873;28;20221;-81
2023/01/09 04:17:50;;;;;;;88.67;41.07;;;;;;;0.92;100.00;94812.41;5021935;28;20201;-79
2023/01/09 04:20:17;;;;;;;103.97;44.70;;;;;;;0.89;100.00;94810.97;5025979;28;20194;-81
2023/01/09 04:22:44;;;;;;;109.90;42.00;;;;;;;0.89;100.00;94807.59;5017117;28;20669;-81
2023/01/09 04:25:12;;;;;;;73.00;36.73;;;;;;;0.83;100.00;94809.03;5020001;28;20207;-81
2023/01/09 04:27:39;;;;;;;76.20;34.87;;;;;;;0.74;100.00;94793.81;5024809;28;20198;-82
2023/01/09 04:30:07;;;;;;;78.83;36.27;;;;;;;0.78;100.00;94805.34;5018547;28;20187;-81
2023/01/09 04:32:34;;;;;;;83.67;42.47;;;;;;;0.84;100.00;94812.38;5014482;28;20656;-80
2023/01/09 04:35:01;;;;;;;115.43;51.97;;;;;;;0.85;100.00;94809.66;5027075;28;20249;-80
2023/01/09 04:37:27;;;;;;;98.43;46.73;;;;;;;0.86;100.00;94800.25;5027224;28;20195;-77
2023/01/09 04:39:54;;;;;;;107.60;46.90;;;;;;;0.79;100.00;94794.13;5021499;28;20213;-74
2023/01/09 04:42:23;;;;;;;116.73;47.53;;;;;;;0.83;100.00;94796.25;5021481;28;20285;-74
2023/01/09 04:44:52;;;;;;;103.20;48.80;;;;;;;0.81;100.00;94799.91;5021558;28;20561;-74
2023/01/09 04:47:19;;;;;;;107.37;49.73;;;;;;;0.80;100.00;94796.56;5018598;28;20192;-74
2023/01/09 04:49:46;;;;;;;101.50;51.27;;;;;;;0.88;100.00;94795.78;5023304;28;20198;-73
2023/01/09 04:52:13;;;;;;;109.47;52.47;;;;;;;0.91;100.00;94798.81;5021782;28;20195;-73
2023/01/09 04:54:40;;;;;;;110.83;53.03;;;;;;;0.94;100.00;94795.94;5021562;28;20233;-74
2023/01/09 04:57:07;;;;;;;114.17;51.40;;;;;;;0.94;100.00;94792.59;5025237;28;20282;-73
2023/01/09 04:59:35;;;;;;;109.57;52.93;;;;;;;0.94;100.00;94790.84;5021663;28;20222;-73
2023/01/09 05:02:02;;;;;;;110.87;52.30;;;;;;;0.89;100.00;94798.19;5022291;28;20250;-74
2023/01/09 05:04:29;;;;;;;113.40;54.27;;;;;;;0.97;100.00;94797.41;5025477;28;20197;-75
2023/01/09 05:06:55;;;;;;;140.53;66.13;;;;;;;0.94;100.00;94798.50;5020057;28;20215;-74
2023/01/09 05:09:22;;;;;;;145.33;72.77;;;;;;;0.93;100.00;94799.47;5022091;28;20904;-73
2023/01/09 05:11:50;;;;;;;153.77;67.53;;;;;;;0.94;100.00;94795.16;5022910;28;20209;-74
2023/01/09 05:14:17;;;;;;;142.00;67.73;;;;;;;0.91;100.00;94791.16;5021838;28;20211;-74
2023/01/09 05:16:45;;;;;;;143.50;67.30;;;;;;;0.89;100.00;94798.19;5019570;28;20201;-74
2023/01/09 05:19:12;;;;;;;148.73;67.77;;;;;;;0.85;100.00;94807.13;5023642;28;20192;-75
2023/01/09 05:21:39;;;;;;;154.97;70.50;;;;;;;0.77;100.00;94803.72;5022013;28;20188;-75
2023/01/09 05:24:06;;;;;;;165.67;75.20;;;;;;;0.73;100.00;94793.00;5021628;28;20201;-74
2023/01/09 05:26:33;;;;;;;154.50;71.90;;;;;;;0.84;100.00;94809.81;5022232;28;20218;-74
2023/01/09 05:28:59;;;;;;;175.23;78.80;;;;;;;0.84;100.00;94810.63;5019924;28;20665;-73
2023/01/09 05:31:27;;;;;;;216.27;100.40;;;;;;;0.73;100.00;94802.41;4997112;28;20865;-74
2023/01/09 05:33:58;;;;;;;213.23;104.30;;;;;;;0.68;100.00;94797.78;5023152;28;20321;-73
2023/01/09 05:36:24;;;;;;;232.43;109.83;;;;;;;0.75;100.00;94796.19;5022316;28;20196;-74
2023/01/09 05:38:51;;;;;;;235.97;107.17;;;;;;;0.80;100.00;94791.44;5016187;28;20212;-74
2023/01/09 05:41:18;;;;;;;221.33;100.00;;;;;;;0.79;100.00;94792.38;5020977;28;20208;-74
2023/01/09 05:43:45;;;;;;;228.90;103.83;;;;;;;0.85;100.00;94796.88;5021780;28;20585;-75
2023/01/09 05:46:12;;;;;;;203.03;99.97;;;;;;;0.80;100.00;94788.06;5017688;28;20580;-75
2023/01/09 05:48:38;;;;;;;194.00;95.40;;;;;;;0.77;100.00;94788.38;5020339;28;20210;-75
2023/01/09 05:51:07;;;;;;;198.27;96.00;;;;;;;0.87;100.00;94791.59;5023392;28;20208;-76
2023/01/09 05:53:33;;;;;;;185.07;93.27;;;;;;;0.90;100.00;94786.16;5023701;28;20222;-74
2023/01/09 05:56:00;;;;;;;166.30;83.40;;;;;;;0.80;100.00;94799.09;5022243;28;20198;-75
2023/01/09 05:58:27;;;;;;;163.90;82.47;;;;;;;0.85;100.00;94790.97;5021452;28;20201;-74
2023/01/09 06:00:54;;;;;;;170.13;85.40;;;;;;;0.87;100.00;94792.41;5019085;28;20213;-73
2023/01/09 06:03:21;;;;;;;169.07;85.67;;;;;;;0.87;100.00;94782.16;5021122;28;20681;-74
2023/01/09 06:05:48;;;;;;;175.33;86.53;;;;;;;0.96;100.00;94776.13;5018232;28;20226;-74
2023/01/09 06:08:16;;;;;;;183.87;92.10;;;;;;;0.95;100.00;94781.41;5017760;28;20229;-75
2023/01/09 06:10:43;;;;;;;169.60;88.63;;;;;;;0.97;100.00;94775.19;5022834;28;20198;-75
2023/01/09 06:13:09;;;;;;;188.20;90.67;;;;;;;0.99;100.00;94775.81;5020484;28;20197;-74
2023/01/09 06:15:36;;;;;;;199.77;96.50;;;;;;;1.07;100.00;94775.00;5018684;28;20201;-75
2023/01/09 06:18:03;;;;;;;210.57;104.57;;;;;;;1.10;100.00;94772.94;5021442;28;20206;-74
2023/01/09 06:20:30;;;;;;;225.27;102.93;;;;;;;1.15;100.00;94773.28;5018754;28;20198;-73
2023/01/09 06:22:57;;;;;;;210.97;100.20;;;;;;;1.19;100.00;94781.44;5014291;28;20204;-74
2023/01/09 06:25:25;;;;;;;209.60;98.63;;;;;;;1.10;100.00;94778.06;5021241;28;20201;-74
2023/01/09 06:27:52;;;;;;;165.87;77.37;;;;;;;1.04;100.00;94772.78;5020374;28;20206;-76
2023/01/09 06:30:19;;;;;;;163.27;77.43;;;;;;;0.91;100.00;94775.00;5020680;28;20219;-74
2023/01/09 06:32:48;;;;;;;184.40;86.57;;;;;;;0.85;100.00;94763.63;5019508;28;20201;-72
2023/01/09 06:35:19;;;;;;;197.30;92.40;;;;;;;0.93;100.00;94775.63;5019712;28;20227;-72
2023/01/09 06:37:46;;;;;;;189.23;91.53;;;;;;;0.99;100.00;94770.69;5018071;28;20645;-72
2023/01/09 06:40:13;;;;;;;187.10;87.60;;;;;;;1.08;100.00;94776.63;5020814;28;20220;-72
2023/01/09 06:42:46;;;;;;;203.60;95.67;;;;;;;1.01;100.00;94760.31;5015040;28;20197;-72
2023/01/09 06:45:14;;;;;;;156.17;78.33;;;;;;;1.18;100.00;94779.06;5018364;28;20204;-78
2023/01/09 06:47:41;;;;;;;131.13;62.80;;;;;;;1.19;100.00;94770.41;5019388;28;20230;-76
2023/01/09 06:50:09;;;;;;;130.40;66.43;;;;;;;1.23;100.00;94777.63;5014794;28;20204;-76
2023/01/09 06:52:36;;;;;;;163.20;78.87;;;;;;;1.29;100.00;94774.44;5021749;28;20199;-77
2023/01/09 06:55:10;;;;;;;186.73;88.77;;;;;;;1.30;100.00;94773.47;5010980;28;20358;-78
2023/01/09 06:57:37;;;;;;;189.97;90.60;;;;;;;1.42;100.00;94779.06;5017251;28;20287;-75
2023/01/09 07:00:06;;;;;;;206.93;101.17;;;;;;;1.49;100.00;94777.47;5015141;28;20206;-75
2023/01/09 07:02:33;;;;;;;237.83;111.80;;;;;;;1.52;100.00;94780.53;5017620;28;20202;-74
2023/01/09 07:05:00;;;;;;;173.03;81.87;;;;;;;1.53;100.00;94781.34;5016328;28;20205;-73
2023/01/09 07:07:26;;;;;;;158.17;74.63;;;;;;;1.57;100.00;94780.84;5017134;28;20283;-74
2023/01/09 07:09:53;;;;;;;172.73;83.17;;;;;;;1.63;100.00;94785.31;5018086;28;20223;-74
2023/01/09 07:12:20;;;;;;;180.90;83.93;;;;;;;1.67;100.00;94778.13;5014889;28;20206;-74
2023/01/09 07:14:47;;;;;;;168.87;83.20;;;;;;;1.72;100.00;94770.75;5016489;28;20689;-74
2023/01/09 07:17:15;;;;;;;176.37;87.53;;;;;;;1.83;100.00;94760.19;5020523;28;20549;-75
2023/01/09 07:19:42;;;;;;;153.47;77.43;;;;;;;1.90;100.00;94762.91;5013761;28;20668;-77
2023/01/09 07:22:10;;;;;;;122.90;61.47;;;;;;;2.01;100.00;94773.63;5015072;28;20199;-77
2023/01/09 07:24:37;;;;;;;118.77;58.40;;;;;;;2.08;100.00;94773.75;5020666;28;20207;-77
2023/01/09 07:27:04;;;;;;;150.40;74.70;;;;;;;2.14;100.00;94767.97;5007144;28;20222;-76
2023/01/09 07:29:31;;;;;;;155.13;78.00;;;;;;;2.25;100.00;94765.84;5016507;28;20195;-77
2023/01/09 07:31:58;;;;;;;161.07;77.77;;;;;;;2.29;100.00;94772.25;5016586;28;20198;-77
2023/01/09 07:34:26;;;;;;;136.00;69.03;;;;;;;2.38;100.00;94773.03;5012457;28;20222;-76
2023/01/09 07:36:53;;;;;;;137.67;67.43;;;;;;;2.38;100.00;94760.22;5012985;28;20195;-76
2023/01/09 07:39:20;;;;;;;132.47;64.80;;;;;;;2.59;100.00;94772.50;5015656;28;20191;-76
2023/01/09 07:41:47;;;;;;;126.90;63.47;;;;;;;2.68;100.00;94772.31;5013882;28;20224;-76
2023/01/09 07:44:14;;;;;;;114.03;57.47;;;;;;;2.72;100.00;94783.81;5015068;28;20569;-77
2023/01/09 07:46:41;;;;;;;139.10;72.33;;;;;;;2.81;100.00;94782.00;5018232;28;20259;-79
2023/01/09 07:49:08;;;;;;;162.40;83.63;;;;;;;2.80;100.00;94786.34;5017165;28;20199;-90
2023/01/09 07:51:37;;;;;;;163.67;86.67;;;;;;;2.84;100.00;94787.63;5022452;28;20205;-80
2023/01/09 07:54:04;;;;;;;171.97;92.80;;;;;;;2.91;100.00;94797.22;5015943;28;20198;-79
2023/01/09 07:56:31;;;;;;;175.33;93.63;;;;;;;2.96;100.00;94797.50;5018944;28;20295;-82
2023/01/09 07:59:01;;;;;;;176.43;100.13;;;;;;;3.05;100.00;94792.16;5019390;28;20203;-82
2023/01/09 08:01:28;;;;;;;187.33;99.17;;;;;;;3.19;100.00;94796.59;5017181;28;20195;-76
2023/01/09 08:03:55;;;;;;;157.43;91.00;;;;;;;3.24;100.00;94803.75;5017474;28;20210;-75
2023/01/09 08:06:22;;;;;;;141.77;77.83;;;;;;;3.32;100.00;94803.72;5016119;28;20227;-76
2023/01/09 08:08:50;;;;;;;125.03;69.70;;;;;;;3.37;100.00;94797.13;5018438;28;20206;-76
2023/01/09 08:11:17;;;;;;;125.43;69.63;;;;;;;3.41;100.00;94800.94;5015608;28;20191;-76
2023/01/09 08:13:43;;;;;;;124.37;68.50;;;;;;;3.50;100.00;94796.53;5016623;28;20283;-75
2023/01/09 08:16:10;;;;;;;110.40;60.20;;;;;;;3.58;100.00;94793.91;5012673;28;20195;-75
2023/01/09 08:18:37;;;;;;;107.57;63.23;;;;;;;3.66;100.00;94801.59;5016561;28;20662;-86
2023/01/09 08:21:04;;;;;;;113.03;61.33;;;;;;;3.70;100.00;94815.66;5022906;28;20198;-77
2023/01/09 08:23:31;;;;;;;110.70;59.17;;;;;;;3.76;100.00;94804.69;5015886;28;20191;-80
2023/01/09 08:25:59;;;;;;;116.97;64.60;;;;;;;3.80;100.00;94793.13;5015458;28;20206;-81
2023/01/09 08:28:26;;;;;;;141.67;79.97;;;;;;;3.94;100.00;94802.63;5017642;28;20202;-79
2023/01/09 08:30:53;;;;;;;163.87;92.00;;;;;;;4.05;99.61;94803.19;5015221;28;20214;-79
2023/01/09 08:33:19;;;;;;;174.37;99.33;;;;;;;4.10;98.91;94806.03;5020198;28;20245;-80
2023/01/09 08:35:46;;;;;;;154.60;88.10;;;;;;;4.09;97.65;94812.16;5015095;28;20541;-79
2023/01/09 08:38:13;;;;;;;163.30;91.77;;;;;;;4.07;98.54;94814.09;5016928;28;20194;-78
2023/01/09 08:40:40;;;;;;;153.93;85.13;;;;;;;4.09;98.94;94807.00;5014363;28;20696;-79
2023/01/09 08:48:36;;;;;;;125.70;66.17;;;;;;;4.24;98.86;94797.56;4998580;28;20295;-79
2023/01/09 08:51:03;;;;;;;121.67;66.47;;;;;;;4.33;98.13;94791.34;5012364;28;20205;-80
2023/01/09 08:53:30;;;;;;;118.63;64.90;;;;;;;4.41;98.41;94786.94;5015423;28;20201;-78
2023/01/09 08:55:58;;;;;;;124.57;62.87;;;;;;;4.53;97.25;94784.72;5018275;28;20204;-79
2023/01/09 08:58:26;;;;;;;118.90;61.43;;;;;;;4.62;97.30;94777.72;5018368;28;20279;-79
2023/01/09 09:00:53;;;;;;;107.87;59.40;;;;;;;4.72;96.32;94779.03;5016528;28;20581;-78
2023/01/09 09:03:20;;;;;;;107.40;57.67;;;;;;;4.78;96.74;94775.72;5017145;28;20205;-80
2023/01/09 09:05:47;;;;;;;112.53;58.40;;;;;;;4.89;95.31;94764.97;5016451;28;20296;-78
2023/01/09 09:08:15;;;;;;;109.10;58.20;;;;;;;4.93;95.57;94770.56;5011368;28;20220;-79
2023/01/09 09:10:42;;;;;;;115.53;58.17;;;;;;;4.93;96.17;94758.50;5020223;28;20193;-79
2023/01/09 09:13:09;;;;;;;110.07;56.60;;;;;;;5.11;95.30;94764.03;5014534;28;20212;-79
2023/01/09 09:15:37;;;;;;;105.27;56.37;;;;;;;5.19;94.36;94750.25;5018583;28;20681;-78
2023/01/09 09:18:08;;;;;;;108.80;54.70;;;;;;;5.29;95.07;94745.59;5015993;28;20734;-80
2023/01/09 09:20:36;;;;;;;116.67;56.03;;;;;;;5.39;94.72;94746.09;5016975;28;21032;-79
2023/01/09 09:23:03;;;;;;;105.20;56.43;;;;;;;5.48;93.69;94739.81;5020497;28;20279;-79
2023/01/09 09:25:30;;;;;;;114.00;55.73;;;;;;;5.30;94.23;94677.63;5020062;28;20213;-78
2023/01/09 09:27:59;;;;;;;104.20;53.10;;;;;;;5.72;93.39;94723.19;5019100;28;20224;-79
2023/01/09 09:30:27;;;;;;;104.03;53.37;;;;;;;5.84;92.66;94719.09;5020944;28;20194;-79
2023/01/09 09:32:55;;;;;;;101.13;51.43;;;;;;;5.98;92.42;94727.75;5024942;28;20198;-77
2023/01/09 09:35:22;;;;;;;91.47;50.43;;;;;;;6.10;91.94;94724.50;5021424;28;20206;-79
2023/01/09 09:37:57;;;;;;;91.73;47.67;;;;;;;6.25;91.35;94711.47;5018445;28;20546;-80
2023/01/09 09:40:54;;;;;;;66.07;38.10;;;;;;;6.27;90.72;94702.56;5024422;28;21067;-80
2023/01/09 09:46:50;;;;;;;64.77;34.63;;;;;;;6.50;90.62;94684.22;5020050;28;20790;-75
2023/01/09 09:49:26;;;;;;;58.13;32.37;;;;;;;6.67;89.84;94674.34;5016818;28;20202;-74
2023/01/09 09:52:02;;;;;;;56.03;31.40;;;;;;;6.81;89.09;94676.00;5017925;28;20207;-75
2023/01/09 09:54:34;;;;;;;57.00;31.13;;;;;;;6.93;88.70;94664.09;5020682;28;20194;-75
2023/01/09 09:57:04;;;;;;;50.67;28.53;;;;;;;6.94;88.46;94649.41;5014121;28;20207;-73
2023/01/09 09:59:35;;;;;;;47.87;23.40;;;;;;;7.18;87.52;94646.28;5017805;28;20201;-75
2023/01/09 10:02:10;;;;;;;44.07;23.73;;;;;;;7.33;85.98;94631.38;5020288;28;20222;-75
2023/01/09 10:04:43;;;;;;;39.30;20.73;;;;;;;7.95;85.37;94623.16;5020172;28;20183;-75
2023/01/09 10:07:19;;;;;;;36.83;21.77;;;;;;;9.16;80.25;94626.66;5017311;28;20222;-74
2023/01/09 10:09:49;;;;;;;36.93;19.53;;;;;;;10.40;71.29;94632.56;5018020;28;20714;-74
2023/01/09 10:12:29;;;;;;;33.47;19.60;;;;;;;11.58;65.38;94629.16;5015849;28;20203;-74
2023/01/09 10:14:57;;;;;;;33.67;18.60;;;;;;;12.37;60.81;94620.81;5016090;28;20203;-75
2023/01/09 10:17:43;;;;;;;32.87;19.27;;;;;;;12.83;58.17;94624.31;5008786;28;20298;-75
2023/01/09 10:20:55;;;;;;;33.80;18.43;;;;;;;12.98;56.71;94614.97;5017241;28;20264;-73
2023/01/09 10:23:47;;;;;;;33.90;18.90;;;;;;;13.17;56.37;94610.38;5018760;28;20633;-77
2023/01/09 10:26:22;;;;;;;35.07;19.47;;;;;;;13.51;55.52;94604.16;5007752;28;20206;-74
2023/01/09 10:29:15;;;;;;;36.23;21.40;;;;;;;14.35;53.26;94606.72;5015060;28;20230;-74
2023/01/09 10:31:56;;;;;;;38.60;22.77;;;;;;;15.50;49.83;94606.44;5017057;28;20681;-74
2023/01/09 10:34:44;;;;;;;39.77;23.00;;;;;;;16.66;46.64;94607.97;5017500;28;20227;-75
2023/01/09 10:37:16;;;;;;;35.87;21.80;;;;;;;17.51;44.11;94625.03;5018215;28;20191;-75
2023/01/09 10:39:51;;;;;;;34.43;22.13;;;;;;;18.35;41.67;94596.34;5016547;28;20199;-74
2023/01/09 10:42:23;;;;;;;39.87;22.87;;;;;;;18.50;40.63;94606.84;5018963;28;21074;-74
2023/01/09 10:44:56;;;;;;;35.93;22.73;;;;;;;18.43;40.53;94595.78;5018586;28;20584;-74
2023/01/09 10:47:28;;;;;;;39.30;21.50;;;;;;;18.63;40.98;94594.97;5017857;28;20618;-73
2023/01/09 10:49:56;;;;;;;37.67;22.33;;;;;;;18.12;41.75;94589.03;5019827;28;20183;-73
2023/01/09 10:52:28;;;;;;;37.13;22.10;;;;;;;18.31;41.96;94581.34;5018894;28;20974;-80
2023/01/09 10:55:03;;;;;;;36.23;23.90;;;;;;;18.07;41.60;94568.75;5030522;28;20616;-81
2023/01/09 10:57:42;;;;;;;36.03;23.57;;;;;;;17.97;42.80;94550.38;5036192;28;20183;-84
2023/01/09 11:00:17;;;;;;;36.77;23.17;;;;;;;17.92;42.50;94563.53;5038015;28;20203;-85
2023/01/09 11:02:45;;;;;;;36.47;20.87;;;;;;;17.49;42.56;94540.38;5035630;28;20187;-84
2023/01/09 11:05:18;;;;;;;40.50;22.73;;;;;;;17.10;44.25;94532.25;5035413;28;20214;-83
2023/01/09 11:07:49;;;;;;;32.37;20.43;;;;;;;16.37;45.31;94535.94;5032532;28;20605;-77
2023/01/09 11:10:17;;;;;;;35.60;21.23;;;;;;;16.10;46.24;94530.06;5020946;28;20207;-81
2023/01/09 11:12:46;;;;;;;29.33;18.53;;;;;;;15.59;47.56;94521.09;5027431;28;20601;-80
2023/01/09 11:15:28;;;;;;;34.87;19.17;;;;;;;15.44;48.07;94531.44;5017112;28;20199;-74
2023/01/09 11:18:17;;;;;;;27.53;18.00;;;;;;;14.88;49.37;94535.41;4996350;28;20226;-74
2023/01/09 11:20:43;;;;;;;31.97;19.23;;;;;;;14.30;50.62;94526.38;5014730;28;20195;-77
2023/01/09 11:23:25;;;;;;;31.13;18.63;;;;;;;13.71;52.90;94520.09;5013784;28;20206;-76
2023/01/09 11:25:54;;;;;;;27.50;17.33;;;;;;;12.83;55.26;94518.19;5015923;28;20217;-74
2023/01/09 11:28:21;;;;;;;24.63;16.40;;;;;;;12.27;57.40;94507.75;5017521;28;20215;-74
2023/01/09 11:30:54;;;;;;;33.57;18.20;;;;;;;11.90;59.19;94499.47;5012611;28;20203;-75
2023/01/09 11:33:24;;;;;;;33.40;16.97;;;;;;;11.39;60.68;94494.97;5020543;28;20861;-74
2023/01/09 11:36:01;;;;;;;29.40;16.97;;;;;;;11.22;62.09;94500.06;5017073;28;20203;-75
2023/01/09 11:38:30;;;;;;;27.00;16.90;;;;;;;10.64;64.84;94499.16;5018525;28;20198;-74
2023/01/09 11:41:01;;;;;;;30.27;17.80;;;;;;;10.62;64.84;94504.56;5018044;28;20806;-73